SWR65 KMIA-LSZH
Flight info
| Callsign | SWR65 |
|---|---|
| Flight time | 9h 9m |
| Altitude | 35000 |
| Route | FOLZZ3 SUMRS/M083F350 M327 JIMAC DCT BALOO DCT 39N050W 42N040W/M083F370 45N030W 46N020W 47N015W DCT ETIKI DCT REGHI/N0474F370 DCT OZNOH/N0472F380 DCT BULOX DCT TABOV/N0471F390 DCT RESMI DCT TEPRI DCT POGZI DCT GELTA DCT MANAG DCT PEVIT DCT BLM |
| Aircraft | B77W/H-SDE1E2E3FGHIJ2J3J4J5M1RWXY/LB1D1 |
Departure
| Time | 2026-04-30 22:59 |
|---|---|
| Airport | Miami International Airport (KMIA) |
Arrival
| Time | 2026-05-01 08:08 |
|---|---|
| Airport | Zürich Airport (LSZH) |
| Time | Latitude | Longitude | Altitude | Speed | Heading |
|---|---|---|---|---|---|
| 2026-04-30 22:25 | 25.79001 | -80.27344 | 20 ft | 0 kts | 1° |
| 2026-04-30 22:48 | 25.78969 | -80.27340 | 23 ft | 4 kts | 355° |
| 2026-04-30 22:49 | 25.78929 | -80.27301 | 24 ft | 4 kts | 267° |
| 2026-04-30 22:49 | 25.78930 | -80.27281 | 24 ft | 0 kts | 267° |
| 2026-04-30 22:51 | 25.78929 | -80.27304 | 25 ft | 6 kts | 267° |
| 2026-04-30 22:51 | 25.78920 | -80.27438 | 20 ft | 10 kts | 262° |
| 2026-04-30 22:52 | 25.78908 | -80.27519 | 20 ft | 11 kts | 260° |
| 2026-04-30 22:52 | 25.78880 | -80.27680 | 20 ft | 11 kts | 262° |
| 2026-04-30 22:53 | 25.78869 | -80.27843 | 20 ft | 11 kts | 269° |
| 2026-04-30 22:53 | 25.78898 | -80.28013 | 24 ft | 16 kts | 293° |
| 2026-04-30 22:53 | 25.78965 | -80.28142 | 21 ft | 22 kts | 301° |
| 2026-04-30 22:54 | 25.79104 | -80.28400 | 20 ft | 25 kts | 302° |
| 2026-04-30 22:55 | 25.79398 | -80.28950 | 19 ft | 30 kts | 299° |
| 2026-04-30 22:55 | 25.79609 | -80.29365 | 20 ft | 32 kts | 299° |
| 2026-04-30 22:56 | 25.79838 | -80.29811 | 19 ft | 34 kts | 300° |
| 2026-04-30 22:56 | 25.80061 | -80.30122 | 19 ft | 0 kts | 47° |
| 2026-04-30 22:57 | 25.80073 | -80.30078 | 18 ft | 0 kts | 85° |
| 2026-04-30 22:57 | 25.80083 | -80.29886 | 18 ft | 38 kts | 88° |
| 2026-04-30 22:58 | 25.80146 | -80.28281 | 23 ft | 189 kts | 88° |
| 2026-04-30 22:59 | 25.79882 | -80.23348 | 2463 ft | 237 kts | 122° |
| 2026-04-30 22:59 | 25.76964 | -80.18224 | 4300 ft | 277 kts | 123° |
| 2026-05-01 07:23 | 48.58872 | 2.05093 | 39231 ft | 437 kts | 102° |
| 2026-05-01 07:24 | 48.57030 | 2.18601 | 39224 ft | 438 kts | 99° |
| 2026-05-01 07:24 | 48.56585 | 2.27769 | 39241 ft | 439 kts | 93° |
| 2026-05-01 07:25 | 48.56363 | 2.36986 | 39237 ft | 439 kts | 93° |
| 2026-05-01 07:25 | 48.56110 | 2.46141 | 39237 ft | 440 kts | 93° |
| 2026-05-01 07:26 | 48.55829 | 2.55367 | 39238 ft | 440 kts | 94° |
| 2026-05-01 07:26 | 48.55537 | 2.64584 | 39234 ft | 440 kts | 94° |
| 2026-05-01 07:27 | 48.55240 | 2.73809 | 39239 ft | 440 kts | 94° |
| 2026-05-01 07:27 | 48.54947 | 2.83024 | 39233 ft | 440 kts | 94° |
| 2026-05-01 07:28 | 48.54658 | 2.92240 | 39232 ft | 439 kts | 94° |
| 2026-05-01 07:28 | 48.54356 | 3.01440 | 39236 ft | 439 kts | 94° |
| 2026-05-01 07:29 | 48.54039 | 3.10636 | 39238 ft | 439 kts | 94° |
| 2026-05-01 07:29 | 48.53715 | 3.19820 | 39237 ft | 438 kts | 94° |
| 2026-05-01 07:30 | 48.53386 | 3.28987 | 39241 ft | 437 kts | 94° |
| 2026-05-01 07:30 | 48.53050 | 3.38137 | 39242 ft | 437 kts | 94° |
| 2026-05-01 07:31 | 48.52708 | 3.47284 | 39242 ft | 436 kts | 94° |
| 2026-05-01 07:32 | 48.51823 | 3.70067 | 39245 ft | 434 kts | 94° |
| 2026-05-01 07:33 | 48.51274 | 3.83677 | 39245 ft | 433 kts | 94° |
| 2026-05-01 07:33 | 48.50663 | 3.97267 | 39239 ft | 433 kts | 99° |
| 2026-05-01 07:34 | 48.47876 | 4.10098 | 39244 ft | 431 kts | 117° |
| 2026-05-01 07:35 | 48.45098 | 4.18041 | 39246 ft | 432 kts | 118° |
| 2026-05-01 07:35 | 48.42275 | 4.26036 | 39244 ft | 433 kts | 118° |
| 2026-05-01 07:36 | 48.39464 | 4.34070 | 39244 ft | 434 kts | 117° |
| 2026-05-01 07:36 | 48.36662 | 4.42106 | 39245 ft | 434 kts | 117° |
| 2026-05-01 07:37 | 48.32442 | 4.54177 | 39248 ft | 435 kts | 118° |
| 2026-05-01 07:37 | 48.29619 | 4.62219 | 39249 ft | 435 kts | 118° |
| 2026-05-01 07:38 | 48.26790 | 4.70251 | 39248 ft | 435 kts | 118° |
| 2026-05-01 07:39 | 48.22544 | 4.82263 | 39251 ft | 434 kts | 118° |
| 2026-05-01 07:39 | 48.18295 | 4.94226 | 39255 ft | 432 kts | 118° |
| 2026-05-01 07:40 | 48.15467 | 5.02163 | 39260 ft | 432 kts | 118° |
| 2026-05-01 07:40 | 48.12635 | 5.10088 | 39255 ft | 432 kts | 118° |
| 2026-05-01 07:41 | 48.10027 | 5.18164 | 39272 ft | 431 kts | 110° |
| 2026-05-01 07:42 | 48.07495 | 5.31078 | 39269 ft | 432 kts | 105° |
| 2026-05-01 07:42 | 48.05869 | 5.39734 | 39260 ft | 433 kts | 105° |
| 2026-05-01 07:43 | 48.04226 | 5.48340 | 39272 ft | 433 kts | 106° |
| 2026-05-01 07:43 | 48.01716 | 5.61331 | 39277 ft | 434 kts | 106° |
| 2026-05-01 07:44 | 47.98333 | 5.78689 | 39276 ft | 437 kts | 106° |
| 2026-05-01 07:45 | 47.96624 | 5.87397 | 39277 ft | 438 kts | 106° |
| 2026-05-01 07:45 | 47.94906 | 5.96117 | 39265 ft | 439 kts | 106° |
| 2026-05-01 07:46 | 47.93177 | 6.04851 | 39281 ft | 442 kts | 107° |
| 2026-05-01 07:46 | 47.91404 | 6.13763 | 39292 ft | 455 kts | 107° |
| 2026-05-01 07:47 | 47.90497 | 6.18310 | 39293 ft | 461 kts | 107° |
| 2026-05-01 07:47 | 47.88647 | 6.27548 | 39286 ft | 469 kts | 107° |
| 2026-05-01 07:48 | 47.85824 | 6.41561 | 39274 ft | 473 kts | 107° |
| 2026-05-01 07:48 | 47.83923 | 6.50943 | 39282 ft | 474 kts | 107° |
| 2026-05-01 07:49 | 47.81045 | 6.65058 | 39286 ft | 476 kts | 107° |
| 2026-05-01 07:50 | 47.79127 | 6.74414 | 39288 ft | 476 kts | 107° |
| 2026-05-01 07:50 | 47.76218 | 6.88516 | 39304 ft | 475 kts | 107° |
| 2026-05-01 07:51 | 47.74275 | 6.97881 | 39309 ft | 474 kts | 107° |
| 2026-05-01 07:52 | 47.71388 | 7.11723 | 38704 ft | 448 kts | 107° |
| 2026-05-01 07:52 | 47.70476 | 7.16076 | 37587 ft | 438 kts | 106° |
| 2026-05-01 07:52 | 47.69562 | 7.20424 | 35817 ft | 444 kts | 106° |
| 2026-05-01 07:53 | 47.67706 | 7.29234 | 32341 ft | 447 kts | 105° |
| 2026-05-01 07:53 | 47.66781 | 7.33605 | 30832 ft | 441 kts | 106° |
| 2026-05-01 07:53 | 47.65868 | 7.37911 | 29305 ft | 433 kts | 106° |
| 2026-05-01 07:53 | 47.64974 | 7.42125 | 27907 ft | 423 kts | 106° |
| 2026-05-01 07:54 | 47.63242 | 7.50260 | 25348 ft | 405 kts | 107° |
| 2026-05-01 07:55 | 47.60540 | 7.61788 | 21352 ft | 385 kts | 108° |
| 2026-05-01 07:55 | 47.58800 | 7.69126 | 19006 ft | 370 kts | 108° |
| 2026-05-01 07:56 | 47.56351 | 7.79494 | 16459 ft | 343 kts | 108° |
| 2026-05-01 07:56 | 47.54719 | 7.86421 | 15617 ft | 369 kts | 108° |
| 2026-05-01 07:57 | 47.53872 | 7.90001 | 15146 ft | 367 kts | 108° |
| 2026-05-01 07:57 | 47.52201 | 7.97048 | 14258 ft | 359 kts | 108° |
| 2026-05-01 07:58 | 47.50558 | 8.03948 | 13321 ft | 352 kts | 108° |
| 2026-05-01 07:58 | 47.48954 | 8.10694 | 12441 ft | 344 kts | 108° |
| 2026-05-01 07:59 | 47.47477 | 8.17308 | 11590 ft | 330 kts | 98° |
| 2026-05-01 07:59 | 47.48297 | 8.23706 | 10990 ft | 316 kts | 58° |
| 2026-05-01 08:00 | 47.55369 | 8.23331 | 10308 ft | 285 kts | 325° |
| 2026-05-01 08:01 | 47.59478 | 8.18481 | 9137 ft | 280 kts | 322° |
| 2026-05-01 08:01 | 47.61198 | 8.17198 | 8685 ft | 279 kts | 352° |
| 2026-05-01 08:01 | 47.63648 | 8.17797 | 8232 ft | 270 kts | 31° |
| 2026-05-01 08:02 | 47.65977 | 8.20827 | 7708 ft | 267 kts | 48° |
| 2026-05-01 08:02 | 47.67028 | 8.23038 | 7271 ft | 263 kts | 73° |
| 2026-05-01 08:03 | 47.66482 | 8.27893 | 7054 ft | 236 kts | 129° |
| 2026-05-01 08:03 | 47.65464 | 8.29725 | 6953 ft | 224 kts | 131° |
| 2026-05-01 08:03 | 47.63337 | 8.32949 | 6807 ft | 221 kts | 139° |
| 2026-05-01 08:04 | 47.61012 | 8.36133 | 5641 ft | 247 kts | 139° |
| 2026-05-01 08:04 | 47.58591 | 8.39468 | 4217 ft | 214 kts | 139° |
| 2026-05-01 08:05 | 47.56603 | 8.42163 | 3688 ft | 180 kts | 137° |
| 2026-05-01 08:05 | 47.55668 | 8.43432 | 3461 ft | 185 kts | 137° |
| 2026-05-01 08:05 | 47.54732 | 8.44708 | 3230 ft | 180 kts | 135° |
| 2026-05-01 08:06 | 47.53024 | 8.47049 | 2758 ft | 154 kts | 136° |
| 2026-05-01 08:06 | 47.51528 | 8.49089 | 2381 ft | 149 kts | 134° |
| 2026-05-01 08:07 | 47.49984 | 8.51192 | 1903 ft | 152 kts | 135° |
| 2026-05-01 08:07 | 47.48434 | 8.53300 | 1498 ft | 149 kts | 135° |
| 2026-05-01 08:08 | 47.47696 | 8.54316 | 1411 ft | 133 kts | 139° |
| 2026-05-01 08:08 | 47.46784 | 8.55554 | 1407 ft | 45 kts | 140° |
| 2026-05-01 08:09 | 47.46444 | 8.55729 | 1409 ft | 19 kts | 166° |
| 2026-05-01 08:09 | 47.46331 | 8.55828 | 1413 ft | 19 kts | 138° |
| 2026-05-01 08:09 | 47.46234 | 8.55959 | 1416 ft | 17 kts | 137° |
| 2026-05-01 08:10 | 47.46007 | 8.55979 | 1411 ft | 16 kts | 187° |
| 2026-05-01 08:10 | 47.45948 | 8.55738 | 1408 ft | 16 kts | 275° |
| 2026-05-01 08:11 | 47.45971 | 8.55433 | 1408 ft | 11 kts | 276° |
| 2026-05-01 08:11 | 47.45975 | 8.55368 | 1403 ft | 0 kts | 276° |
| 2026-05-01 08:12 | 47.45985 | 8.55342 | 1410 ft | 3 kts | 329° |
| 2026-05-01 08:12 | 47.46016 | 8.55331 | 1410 ft | 6 kts | 358° |
| 2026-05-01 08:12 | 47.46047 | 8.55335 | 1408 ft | 2 kts | 6° |
| 2026-05-01 08:13 | 47.46059 | 8.55337 | 1408 ft | 1 kts | 6° |
| 2026-05-01 08:13 | 47.46061 | 8.55337 | 1408 ft | 0 kts | 6° |